createdAt,value
2022-10-21T00:00:52.412Z,11.96
2022-10-21T00:03:21.150Z,11.88
2022-10-21T00:05:49.662Z,11.89
2022-10-21T00:08:19.913Z,11.90
2022-10-21T00:10:52.169Z,11.94
2022-10-21T00:13:20.226Z,11.99
2022-10-21T00:15:58.936Z,12.05
2022-10-21T00:18:26.992Z,12.16
2022-10-21T00:20:55.002Z,12.18
2022-10-21T00:23:24.360Z,11.93
2022-10-21T00:25:57.218Z,12.05
2022-10-21T00:28:25.237Z,12.02
2022-10-21T00:30:53.283Z,12.08
2022-10-21T00:33:21.389Z,12.07
2022-10-21T00:35:52.420Z,12.10
2022-10-21T00:40:51.150Z,12.13
2022-10-21T00:43:19.278Z,12.18
2022-10-21T00:45:47.805Z,12.21
2022-10-21T00:48:20.680Z,12.14
2022-10-21T00:50:51.618Z,12.22
2022-10-21T00:53:19.942Z,12.27
2022-10-21T00:55:52.808Z,12.28
2022-10-21T00:58:23.457Z,12.33
2022-10-21T01:00:52.727Z,12.34
2022-10-21T01:03:20.868Z,12.27
2022-10-21T01:08:17.918Z,12.31
2022-10-21T01:10:46.279Z,12.31
2022-10-21T01:13:24.278Z,12.32
2022-10-21T01:15:57.521Z,12.36
2022-10-21T01:18:29.506Z,12.23
2022-10-21T01:21:09.188Z,12.31
2022-10-21T01:24:24.752Z,12.26
2022-10-21T01:27:18.876Z,12.31
2022-10-21T01:30:10.467Z,12.32
2022-10-21T01:32:48.864Z,12.35
2022-10-21T01:35:21.795Z,12.35
2022-10-21T01:37:56.121Z,12.36
2022-10-21T01:40:28.378Z,12.34
2022-10-21T01:42:58.297Z,12.30
2022-10-21T01:45:30.833Z,12.31
2022-10-21T01:48:04.166Z,12.33
2022-10-21T01:50:35.770Z,12.29
2022-10-21T01:53:07.492Z,12.31
2022-10-21T01:55:36.810Z,12.34
2022-10-21T01:58:07.574Z,12.35
2022-10-21T02:00:36.707Z,12.27
2022-10-21T02:03:10.422Z,12.31
2022-10-21T02:05:39.007Z,12.27
2022-10-21T02:08:07.359Z,12.32
2022-10-21T02:10:40.129Z,12.34
2022-10-21T02:13:11.353Z,12.33
2022-10-21T02:15:42.585Z,12.35
2022-10-21T02:18:22.886Z,12.34
2022-10-21T02:20:54.114Z,12.35
2022-10-21T02:23:26.158Z,12.32
2022-10-21T02:25:54.210Z,12.32
2022-10-21T02:28:22.195Z,12.34
2022-10-21T02:30:57.959Z,12.30
2022-10-21T02:33:35.611Z,12.30
2022-10-21T02:36:10.653Z,12.28
2022-10-21T02:38:42.779Z,12.28
2022-10-21T02:41:12.617Z,12.24
2022-10-21T02:43:43.861Z,12.20
2022-10-21T02:46:13.557Z,12.21
2022-10-21T02:48:45.457Z,12.23
2022-10-21T02:51:13.489Z,12.19
2022-10-21T02:53:41.541Z,12.17
2022-10-21T02:56:10.084Z,12.15
2022-10-21T02:58:38.103Z,12.16
2022-10-21T03:01:06.426Z,12.16
2022-10-21T03:03:34.475Z,12.16
2022-10-21T03:06:04.107Z,12.16
2022-10-21T03:08:32.177Z,12.17
2022-10-21T03:11:00.364Z,12.17
2022-10-21T03:13:28.510Z,12.15
2022-10-21T03:15:56.505Z,12.18
2022-10-21T03:18:24.519Z,12.17
2022-10-21T03:20:53.123Z,12.19
2022-10-21T03:23:22.455Z,12.19
2022-10-21T03:25:50.532Z,12.13
2022-10-21T03:28:21.139Z,12.11
2022-10-21T03:30:49.155Z,12.16
2022-10-21T03:33:42.220Z,12.14
2022-10-21T03:36:10.226Z,12.14
2022-10-21T03:38:39.651Z,12.15
2022-10-21T03:41:07.710Z,12.15
2022-10-21T03:43:35.742Z,12.14
2022-10-21T03:46:03.716Z,12.14
2022-10-21T03:48:31.739Z,12.14
2022-10-21T03:50:59.758Z,12.10
2022-10-21T03:53:42.149Z,12.12
2022-10-21T03:56:13.028Z,12.03
2022-10-21T03:58:41.490Z,12.03
2022-10-21T04:01:12.897Z,11.99
2022-10-21T04:03:41.211Z,11.99
2022-10-21T04:06:09.346Z,11.98
2022-10-21T04:08:37.544Z,12.01
2022-10-21T04:11:05.962Z,12.01
2022-10-21T04:13:35.378Z,12.01
2022-10-21T04:16:05.293Z,12.05
2022-10-21T04:18:34.356Z,12.03
2022-10-21T04:21:02.367Z,12.03
2022-10-21T04:23:30.377Z,12.07
2022-10-21T04:25:58.404Z,12.09
2022-10-21T04:28:26.427Z,12.09
2022-10-21T04:30:55.785Z,12.13
2022-10-21T04:33:23.821Z,12.12
2022-10-21T04:35:51.910Z,12.13
2022-10-21T04:38:19.940Z,12.09
2022-10-21T04:40:47.973Z,12.12
2022-10-21T04:43:15.991Z,12.12
2022-10-21T04:45:43.989Z,12.09
2022-10-21T04:48:13.800Z,12.05
2022-10-21T04:50:41.793Z,12.04
2022-10-21T04:53:09.842Z,11.98
2022-10-21T04:55:39.900Z,12.00
2022-10-21T04:58:08.037Z,11.95
2022-10-21T05:00:36.432Z,11.90
2022-10-21T05:03:04.901Z,11.88
2022-10-21T05:05:34.302Z,11.85
2022-10-21T05:08:02.349Z,11.86
2022-10-21T05:10:31.144Z,11.86
2022-10-21T05:12:59.256Z,11.77
2022-10-21T05:15:27.699Z,11.72
2022-10-21T05:17:55.918Z,11.77
2022-10-21T05:20:23.947Z,11.80
2022-10-21T05:22:53.613Z,11.76
2022-10-21T05:25:23.656Z,11.76
2022-10-21T05:27:52.033Z,11.77
2022-10-21T05:30:20.081Z,11.75
2022-10-21T05:32:48.125Z,11.73
2022-10-21T05:35:16.338Z,11.68
2022-10-21T05:37:44.314Z,11.67
2022-10-21T05:40:13.998Z,11.65
2022-10-21T05:42:41.981Z,11.60
2022-10-21T05:45:11.320Z,11.57
2022-10-21T05:47:39.911Z,11.53
2022-10-21T05:50:09.421Z,11.54
2022-10-21T05:52:37.858Z,11.52
2022-10-21T05:55:07.017Z,11.51
2022-10-21T05:57:37.389Z,11.46
2022-10-21T06:00:06.590Z,11.44
2022-10-21T06:02:35.312Z,11.45
2022-10-21T06:05:03.410Z,11.41
2022-10-21T06:07:31.450Z,11.42
2022-10-21T06:09:59.522Z,11.39
2022-10-21T06:12:27.482Z,11.40
2022-10-21T06:14:56.890Z,11.34
2022-10-21T06:17:24.941Z,11.37
2022-10-21T06:19:52.979Z,11.33
2022-10-21T06:22:21.057Z,11.33
2022-10-21T06:24:49.564Z,11.35
2022-10-21T06:27:17.573Z,11.33
2022-10-21T06:29:45.601Z,11.36
2022-10-21T06:32:14.981Z,11.31
2022-10-21T06:34:42.969Z,11.33
2022-10-21T06:37:10.995Z,11.32
2022-10-21T06:39:38.965Z,11.35
2022-10-21T06:42:06.974Z,11.37
2022-10-21T06:44:41.347Z,11.33
2022-10-21T06:47:09.703Z,11.32
2022-10-21T06:49:39.044Z,11.37
2022-10-21T06:52:07.049Z,11.33
2022-10-21T06:54:35.158Z,11.28
2022-10-21T06:57:03.173Z,11.34
2022-10-21T06:59:31.595Z,11.43
2022-10-21T07:02:00.839Z,11.51
2022-10-21T07:04:29.855Z,11.55
2022-10-21T07:06:59.431Z,11.56
2022-10-21T07:09:27.530Z,11.54
2022-10-21T07:11:55.608Z,11.60
2022-10-21T07:14:23.912Z,11.58
2022-10-21T07:16:53.472Z,11.63
2022-10-21T07:19:21.650Z,11.58
2022-10-21T07:21:49.835Z,11.60
2022-10-21T07:24:22.534Z,11.56
2022-10-21T07:26:51.162Z,11.46
2022-10-21T07:29:19.381Z,11.54
2022-10-21T07:31:47.411Z,11.60
2022-10-21T07:34:15.428Z,11.62
2022-10-21T07:36:47.878Z,11.63
2022-10-21T07:39:17.714Z,11.72
2022-10-21T07:41:49.258Z,11.74
2022-10-21T07:44:17.856Z,11.77
2022-10-21T07:46:46.645Z,11.84
2022-10-21T07:49:15.254Z,11.86
2022-10-21T07:51:43.693Z,11.89
2022-10-21T07:54:12.202Z,11.90
2022-10-21T07:56:42.256Z,11.93
2022-10-21T07:59:13.304Z,11.97
2022-10-21T08:01:44.305Z,11.96
2022-10-21T08:04:13.989Z,11.99
2022-10-21T08:06:42.761Z,12.04
2022-10-21T08:09:10.851Z,12.05
2022-10-21T08:11:39.379Z,12.06
2022-10-21T08:14:08.904Z,12.08
2022-10-21T08:16:38.759Z,12.13
2022-10-21T08:19:07.557Z,12.23
2022-10-21T08:21:36.055Z,12.25
2022-10-21T08:24:04.732Z,12.33
2022-10-21T08:26:32.946Z,12.37
2022-10-21T08:29:00.943Z,12.44
2022-10-21T08:31:28.950Z,12.46
2022-10-21T08:33:59.140Z,12.50
2022-10-21T08:36:27.218Z,12.54
2022-10-21T08:38:55.653Z,12.57
2022-10-21T08:41:54.420Z,12.63
2022-10-21T08:44:36.973Z,12.66
2022-10-21T08:47:10.977Z,12.69
2022-10-21T08:49:48.058Z,12.78
2022-10-21T08:52:19.742Z,12.78
2022-10-21T08:54:51.392Z,12.84
2022-10-21T08:57:19.936Z,12.87
2022-10-21T08:59:48.333Z,12.90
2022-10-21T09:02:25.989Z,12.93
2022-10-21T09:04:57.630Z,13.01
2022-10-21T09:07:30.625Z,13.01
2022-10-21T09:10:02.220Z,13.02
2022-10-21T09:12:34.689Z,13.01
2022-10-21T09:15:18.478Z,13.14
2022-10-21T09:17:58.503Z,13.23
2022-10-21T09:20:40.166Z,13.28
2022-10-21T09:23:22.110Z,13.33
2022-10-21T09:25:55.025Z,13.34
2022-10-21T09:28:23.107Z,13.37
2022-10-21T09:30:51.972Z,13.32
2022-10-21T09:33:23.506Z,13.34
2022-10-21T09:35:55.308Z,13.42
2022-10-21T09:38:27.097Z,13.41
2022-10-21T09:40:59.281Z,13.47
2022-10-21T09:43:28.036Z,13.51
2022-10-21T09:45:56.137Z,13.58
2022-10-21T09:48:30.131Z,13.49
2022-10-21T09:51:02.823Z,13.55
2022-10-21T09:53:34.607Z,13.56
2022-10-21T09:56:05.426Z,13.57
2022-10-21T09:58:46.507Z,13.62
2022-10-21T10:01:17.912Z,13.52
2022-10-21T10:03:47.935Z,13.58
2022-10-21T10:06:32.390Z,13.62
2022-10-21T10:09:15.350Z,13.57
2022-10-21T10:11:51.380Z,13.58
2022-10-21T10:14:25.325Z,13.64
2022-10-21T10:16:53.397Z,13.65
2022-10-21T10:19:23.670Z,13.71
2022-10-21T10:22:11.235Z,13.81
2022-10-21T10:24:40.619Z,13.86
2022-10-21T10:27:14.148Z,13.92
2022-10-21T10:29:43.341Z,13.98
2022-10-21T10:32:15.401Z,13.92
2022-10-21T10:34:52.203Z,14.07
2022-10-21T10:37:23.318Z,14.11
2022-10-21T10:39:55.651Z,14.19
2022-10-21T10:42:25.950Z,14.19
2022-10-21T10:44:56.193Z,14.18
2022-10-21T10:47:27.693Z,14.24
2022-10-21T10:49:55.902Z,14.25
2022-10-21T10:52:26.252Z,14.25
2022-10-21T10:55:17.182Z,14.35
2022-10-21T10:57:58.995Z,14.45
2022-10-21T11:00:39.174Z,14.25
2022-10-21T11:03:08.742Z,14.29
2022-10-21T11:05:38.461Z,14.48
2022-10-21T11:08:15.441Z,14.53
2022-10-21T11:10:46.962Z,14.64
2022-10-21T11:13:17.458Z,14.74
2022-10-21T11:15:58.427Z,14.82
2022-10-21T11:18:32.339Z,14.89
2022-10-21T11:21:08.237Z,14.95
2022-10-21T11:23:56.922Z,15.00
2022-10-21T11:26:34.823Z,15.07
2022-10-21T11:29:12.051Z,15.12
2022-10-21T11:32:09.701Z,15.18
2022-10-21T11:34:42.401Z,15.13
2022-10-21T11:37:19.515Z,15.13
2022-10-21T11:39:55.145Z,15.19
2022-10-21T11:42:28.868Z,15.27
2022-10-21T11:45:04.765Z,15.30
2022-10-21T11:47:37.811Z,15.31
2022-10-21T11:50:16.410Z,15.34
2022-10-21T11:52:50.884Z,15.30
2022-10-21T11:55:38.742Z,15.27
2022-10-21T11:58:21.616Z,15.03
2022-10-21T12:00:55.426Z,14.78
2022-10-21T12:03:41.017Z,14.75
2022-10-21T12:06:18.350Z,14.85
2022-10-21T12:08:52.046Z,14.99
2022-10-21T12:11:23.426Z,15.08
2022-10-21T12:13:53.750Z,15.27
2022-10-21T12:16:25.596Z,15.38
2022-10-21T12:18:55.480Z,15.37
2022-10-21T12:21:26.274Z,15.20
2022-10-21T12:23:59.125Z,15.30
2022-10-21T12:26:32.880Z,15.34
2022-10-21T12:29:05.685Z,15.37
2022-10-21T12:31:39.805Z,15.09
2022-10-21T12:34:11.038Z,15.29
2022-10-21T12:36:41.314Z,15.37
2022-10-21T12:39:13.351Z,15.29
2022-10-21T12:41:44.066Z,15.17
2022-10-21T12:44:22.367Z,15.40
2022-10-21T12:46:52.432Z,15.55
2022-10-21T12:49:26.289Z,15.64
2022-10-21T12:51:57.662Z,15.64
2022-10-21T12:54:30.387Z,15.52
2022-10-21T12:57:05.102Z,15.44
2022-10-21T12:59:35.828Z,15.60
2022-10-21T13:02:20.229Z,15.51
2022-10-21T13:04:50.948Z,15.58
2022-10-21T13:07:38.294Z,15.55
2022-10-21T13:10:36.493Z,15.61
2022-10-21T13:13:30.534Z,15.68
2022-10-21T13:15:59.478Z,15.56
2022-10-21T13:18:52.868Z,15.70
2022-10-21T13:21:32.408Z,15.79
2022-10-21T13:24:07.796Z,15.85
2022-10-21T13:26:40.608Z,15.89
2022-10-21T13:29:21.949Z,15.89
2022-10-21T13:32:30.887Z,15.93
2022-10-21T13:35:23.217Z,15.93
2022-10-21T13:37:55.102Z,15.94
2022-10-21T13:40:26.043Z,15.97
2022-10-21T13:42:58.151Z,15.98
2022-10-21T13:45:30.839Z,15.94
2022-10-21T13:48:04.380Z,15.94
2022-10-21T13:50:34.102Z,15.91
2022-10-21T13:53:04.436Z,15.91
2022-10-21T13:55:32.461Z,15.91
2022-10-21T13:58:00.428Z,15.90
2022-10-21T14:00:31.784Z,15.89
2022-10-21T14:03:02.248Z,15.89
2022-10-21T14:05:33.034Z,15.87
2022-10-21T14:08:01.299Z,15.80
2022-10-21T14:10:30.568Z,15.82
2022-10-21T14:15:40.062Z,15.76
2022-10-21T14:18:08.477Z,15.79
2022-10-21T14:20:37.938Z,15.81
2022-10-21T14:23:08.560Z,15.83
2022-10-21T14:25:36.683Z,15.84
2022-10-21T14:28:05.481Z,15.81
2022-10-21T14:30:34.776Z,15.80
2022-10-21T14:33:06.232Z,15.78
2022-10-21T14:35:34.226Z,15.73
2022-10-21T14:38:03.902Z,15.74
2022-10-21T14:40:33.412Z,15.69
2022-10-21T14:43:02.937Z,15.71
2022-10-21T14:45:32.608Z,15.65
2022-10-21T14:48:10.613Z,15.69
2022-10-21T14:50:39.151Z,15.68
2022-10-21T14:53:15.650Z,15.64
2022-10-21T14:55:44.251Z,15.58
2022-10-21T15:00:56.406Z,15.64
2022-10-21T15:03:43.871Z,15.55
2022-10-21T15:06:14.764Z,15.50
2022-10-21T15:08:44.879Z,15.59
2022-10-21T15:11:20.877Z,15.63
2022-10-21T15:14:06.944Z,15.65
2022-10-21T15:19:10.380Z,15.70
2022-10-21T15:21:41.062Z,15.69
2022-10-21T15:24:18.512Z,15.68
2022-10-21T15:26:47.712Z,15.68
2022-10-21T15:29:23.831Z,15.66
2022-10-21T15:31:53.271Z,15.64
2022-10-21T15:34:22.716Z,15.62
2022-10-21T15:36:50.698Z,15.61
2022-10-21T15:39:18.841Z,15.59
2022-10-21T15:41:49.630Z,15.57
2022-10-21T15:44:20.540Z,15.55
2022-10-21T15:46:50.315Z,15.55
2022-10-21T15:49:20.095Z,15.57
2022-10-21T15:51:50.389Z,15.56
2022-10-21T15:54:19.512Z,15.56
2022-10-21T15:56:49.797Z,15.54
2022-10-21T15:59:20.124Z,15.53
2022-10-21T16:01:48.976Z,15.52
2022-10-21T16:04:17.621Z,15.54
2022-10-21T16:06:48.153Z,15.52
2022-10-21T16:09:21.038Z,15.50
2022-10-21T16:11:58.882Z,15.48
2022-10-21T16:14:29.614Z,15.47
2022-10-21T16:16:58.842Z,15.48
2022-10-21T16:19:26.886Z,15.32
2022-10-21T16:21:54.808Z,15.34
2022-10-21T16:24:24.210Z,15.39
2022-10-21T16:26:52.194Z,15.34
2022-10-21T16:29:21.675Z,15.40
2022-10-21T16:31:49.902Z,15.40
2022-10-21T16:34:18.107Z,15.41
2022-10-21T16:36:46.070Z,15.38
2022-10-21T16:39:16.340Z,15.39
2022-10-21T16:41:45.729Z,15.41
2022-10-21T16:44:13.735Z,15.39
2022-10-21T16:46:42.983Z,15.38
2022-10-21T16:49:13.201Z,15.37
2022-10-21T16:51:42.505Z,15.38
2022-10-21T16:54:11.170Z,15.30
2022-10-21T16:56:39.167Z,15.31
2022-10-21T16:59:08.566Z,15.31
2022-10-21T17:01:36.912Z,15.31
2022-10-21T17:04:05.173Z,15.16
2022-10-21T17:06:33.197Z,15.18
2022-10-21T17:09:01.294Z,15.13
2022-10-21T17:11:33.075Z,15.03
2022-10-21T17:14:02.079Z,14.94
2022-10-21T17:16:31.603Z,14.97
2022-10-21T17:18:59.722Z,15.06
2022-10-21T17:21:29.376Z,15.08
2022-10-21T17:23:58.320Z,15.11
2022-10-21T17:26:26.828Z,15.12
2022-10-21T17:28:55.607Z,15.11
2022-10-21T17:31:25.499Z,15.09
2022-10-21T17:33:56.556Z,15.09
2022-10-21T17:36:24.740Z,15.06
2022-10-21T17:38:52.713Z,15.01
2022-10-21T17:41:21.050Z,14.86
2022-10-21T17:43:49.442Z,14.92
2022-10-21T17:46:19.383Z,14.98
2022-10-21T17:48:50.562Z,15.02
2022-10-21T17:51:20.478Z,14.96
2022-10-21T17:53:49.388Z,14.99
2022-10-21T17:56:17.523Z,14.98
2022-10-21T17:58:45.625Z,15.00
2022-10-21T18:01:14.769Z,14.85
2022-10-21T18:03:42.909Z,14.86
2022-10-21T18:06:12.100Z,14.90
2022-10-21T18:08:41.963Z,14.93
2022-10-21T18:11:12.362Z,14.89
2022-10-21T18:13:41.028Z,14.91
2022-10-21T18:16:11.124Z,14.93
2022-10-21T18:18:39.446Z,14.83
2022-10-21T18:21:09.136Z,14.86
2022-10-21T18:23:39.464Z,14.83
2022-10-21T18:26:12.409Z,14.76
2022-10-21T18:28:40.613Z,14.79
2022-10-21T18:31:08.685Z,14.82
2022-10-21T18:33:36.729Z,14.82
2022-10-21T18:36:09.085Z,14.83
2022-10-21T18:38:37.238Z,14.81
2022-10-21T18:41:19.512Z,14.76
2022-10-21T18:43:50.695Z,14.79
2022-10-21T18:46:19.409Z,14.79
2022-10-21T18:48:47.894Z,14.78
2022-10-21T18:51:17.810Z,14.78
2022-10-21T18:53:48.517Z,14.78
2022-10-21T18:56:19.843Z,14.77
2022-10-21T18:58:49.883Z,14.75
2022-10-21T19:01:18.982Z,14.73
2022-10-21T19:03:47.462Z,14.67
2022-10-21T19:06:17.556Z,14.67
2022-10-21T19:08:45.778Z,14.59
2022-10-21T19:11:13.960Z,14.47
2022-10-21T19:13:42.054Z,14.43
2022-10-21T19:16:11.574Z,14.32
2022-10-21T19:18:39.642Z,14.35
2022-10-21T19:21:07.696Z,14.38
2022-10-21T19:23:35.751Z,14.42
2022-10-21T19:26:04.153Z,14.45
2022-10-21T19:28:32.264Z,14.35
2022-10-21T19:31:00.404Z,14.34
2022-10-21T19:33:29.819Z,14.34
2022-10-21T19:36:00.196Z,14.31
2022-10-21T19:38:43.595Z,14.35
2022-10-21T19:41:14.105Z,14.36
2022-10-21T19:43:42.140Z,14.37
2022-10-21T19:46:12.372Z,14.35
2022-10-21T19:48:41.785Z,14.35
2022-10-21T19:51:15.176Z,14.18
2022-10-21T19:53:45.041Z,14.18
2022-10-21T19:56:14.064Z,14.07
2022-10-21T19:58:43.607Z,14.06
2022-10-21T20:01:13.430Z,14.01
2022-10-21T20:03:44.069Z,14.01
2022-10-21T20:06:14.727Z,14.06
2022-10-21T20:08:43.420Z,14.09
2022-10-21T20:11:13.788Z,14.09
2022-10-21T20:13:42.195Z,14.13
2022-10-21T20:16:15.896Z,14.13
2022-10-21T20:18:45.840Z,14.19
2022-10-21T20:21:14.473Z,14.10
2022-10-21T20:23:42.477Z,14.17
2022-10-21T20:26:10.535Z,14.22
2022-10-21T20:28:39.184Z,14.24
2022-10-21T20:31:08.838Z,14.17
2022-10-21T20:33:38.786Z,14.10
2022-10-21T20:36:11.409Z,14.13
2022-10-21T20:38:39.402Z,14.16
2022-10-21T20:41:09.720Z,14.18
2022-10-21T20:43:39.652Z,14.16
2022-10-21T20:46:09.865Z,14.14
2022-10-21T20:48:40.872Z,14.12
2022-10-21T20:51:12.251Z,14.17
2022-10-21T20:53:40.969Z,14.20
2022-10-21T20:56:09.239Z,14.22
2022-10-21T20:58:37.965Z,14.22
2022-10-21T21:01:10.019Z,14.23
2022-10-21T21:03:39.301Z,14.25
2022-10-21T21:06:07.609Z,14.24
2022-10-21T21:08:41.275Z,14.23
2022-10-21T21:11:13.099Z,14.24
2022-10-21T21:13:44.249Z,14.22
2022-10-21T21:16:13.515Z,14.22
2022-10-21T21:18:43.719Z,14.22
2022-10-21T21:21:14.070Z,14.22
2022-10-21T21:23:44.931Z,14.18
2022-10-21T21:26:15.107Z,14.12
2022-10-21T21:28:43.551Z,14.04
2022-10-21T21:31:12.376Z,14.07
2022-10-21T21:33:42.377Z,14.13
2022-10-21T21:36:10.926Z,14.15
2022-10-21T21:38:39.222Z,14.14
2022-10-21T21:41:10.541Z,14.15
2022-10-21T21:43:41.480Z,14.18
2022-10-21T21:46:10.514Z,14.15
2022-10-21T21:48:38.688Z,14.15
2022-10-21T21:51:09.682Z,14.12
2022-10-21T21:53:38.293Z,14.14
2022-10-21T21:56:09.286Z,14.10
2022-10-21T21:58:38.980Z,14.14
2022-10-21T22:01:11.237Z,14.11
2022-10-21T22:03:40.380Z,14.12
2022-10-21T22:06:09.000Z,14.07
2022-10-21T22:08:39.051Z,14.07
2022-10-21T22:11:11.656Z,14.08
2022-10-21T22:13:40.267Z,14.08
2022-10-21T22:16:10.446Z,14.09
2022-10-21T22:18:38.823Z,14.10
2022-10-21T22:21:08.427Z,14.11
2022-10-21T22:23:37.106Z,14.09
2022-10-21T22:26:05.630Z,14.09
2022-10-21T22:28:35.543Z,14.09
2022-10-21T22:31:05.445Z,14.09
2022-10-21T22:33:33.944Z,14.09
2022-10-21T22:36:02.070Z,14.08
2022-10-21T22:38:30.238Z,14.06
2022-10-21T22:40:59.962Z,14.01
2022-10-21T22:43:28.220Z,13.99
2022-10-21T22:46:09.563Z,13.91
2022-10-21T22:48:43.306Z,13.85
2022-10-21T22:51:11.317Z,13.86
2022-10-21T22:53:39.289Z,13.87
2022-10-21T22:56:07.681Z,13.90
2022-10-21T22:58:35.719Z,13.80
2022-10-21T23:01:09.118Z,13.82
2022-10-21T23:03:37.961Z,13.72
2022-10-21T23:06:06.016Z,13.76
2022-10-21T23:08:33.993Z,13.80
2022-10-21T23:11:02.065Z,13.81
2022-10-21T23:13:30.201Z,13.81
2022-10-21T23:15:58.228Z,13.85
2022-10-21T23:18:27.665Z,13.86
2022-10-21T23:20:55.832Z,13.86
2022-10-21T23:23:24.016Z,13.87
2022-10-21T23:25:52.129Z,13.88
2022-10-21T23:28:20.156Z,13.88
2022-10-21T23:30:48.896Z,13.90
2022-10-21T23:33:16.968Z,13.88
2022-10-21T23:35:46.395Z,13.87
2022-10-21T23:38:14.428Z,13.88
2022-10-21T23:40:42.578Z,13.89
2022-10-21T23:43:10.642Z,13.88
2022-10-21T23:45:38.798Z,13.89
2022-10-21T23:48:07.597Z,13.88
2022-10-21T23:50:35.613Z,13.88
2022-10-21T23:53:04.961Z,13.88
2022-10-21T23:58:01.862Z,13.85
